Terminal Aerodrome Forecast
Issued by NWS Kansas City/Pleasant Hill, MO

Home | Current Version | Previous Version | Text Only | Print | Product List | Glossary On
Versions: 1 2 3 4 5 6 7 8 9 10 11 12
000
FTUS43 KEAX 232300
TAFMCI
TAF
KMCI 232320Z 2400/2424 13013KT P6SM SCT090 BKN150
     FM240100 16012KT P6SM VCTS BKN050CB
     FM240300 17012KT P6SM VCSH BKN050
     FM240900 17012KT P6SM BKN100=

USA.gov is the U.S. government's official web portal to all federal, state and local government web resources and services.